Terminal Aerodrome Forecast
Issued by NWS

Home | Current Version | Previous Version | Text Only | Print | Product List | Glossary On
Versions: 1 2 3 4 5 6 7 8 9 10 11 12 13
000
FTUS44 KSJT 150034 AAA
TAFJCT
TAF AMD
KJCT 150034Z 1501/1524 09009KT P6SM SCT080
     FM150300 10003KT P6SM SKC
     FM151800 10009KT P6SM SCT080=

USA.gov is the U.S. government's official web portal to all federal, state and local government web resources and services.